Time;durP1;ratioP1;P1;durP2;ratioP2;P2;SDS_P1;SDS_P2;PMS_P1;PMS_P2;Temp;Humidity;BMP_temperature;BMP_pressure;BME280_temperature;BME280_humidity;BME280_pressure;Samples;Min_cycle;Max_cycle;Signal;HPM_P1;HPM_P2
2021/10/22 00:13:18;;;;;;;0.20;0.20;;;8.60;90.00;7.00;101388.00;;;;31138482;28;20053;-72
2021/10/22 00:28:20;;;;;;;0.20;0.20;;;8.10;88.70;6.90;101372.00;;;;31113056;28;20048;-71
2021/10/22 00:43:21;;;;;;;0.22;0.22;;;7.90;89.20;6.70;101368.00;;;;31122152;28;20518;-72
2021/10/22 00:58:25;;;;;;;0.20;0.20;;;7.70;89.70;6.50;101351.00;;;;31123325;28;20060;-72
2021/10/22 01:13:29;;;;;;;8.02;1.50;;;7.60;89.50;6.40;101361.00;;;;31127456;28;20044;-72
2021/10/22 01:28:32;;;;;;;0.10;0.10;;;7.50;89.40;6.20;101345.00;;;;31119781;28;20054;-71
2021/10/22 01:43:33;;;;;;;0.20;0.20;;;7.40;89.00;6.20;101331.00;;;;31115902;28;20603;-72
2021/10/22 01:58:34;;;;;;;0.20;0.20;;;7.30;89.10;6.00;101329.00;;;;31130164;28;20061;-72
2021/10/22 02:13:37;;;;;;;0.20;0.20;;;7.20;90.60;5.90;101344.00;;;;31111253;28;20327;-72
2021/10/22 02:28:41;;;;;;;0.20;0.20;;;7.10;89.40;5.80;101336.00;;;;31108871;28;20664;-73
2021/10/22 02:43:42;;;;;;;0.20;0.20;;;7.00;90.30;5.80;101322.00;;;;31152378;28;20140;-74
2021/10/22 02:58:43;;;;;;;0.30;0.30;;;6.90;88.70;5.70;101306.00;;;;31117835;28;20636;-73
2021/10/22 03:13:51;;;;;;;0.20;0.20;;;6.90;88.40;5.60;101306.00;;;;31135615;28;20041;-72
2021/10/22 03:28:53;;;;;;;0.30;0.30;;;6.80;88.40;5.50;101285.00;;;;31134953;28;20073;-73
2021/10/22 03:43:54;;;;;;;0.20;0.20;;;7.20;92.40;5.50;101288.00;;;;31125136;28;20400;-71
2021/10/22 03:58:57;;;;;;;0.73;0.73;;;6.70;88.00;5.50;101264.00;;;;31139672;28;20041;-71
2021/10/22 04:14:01;;;;;;;0.20;0.20;;;6.70;87.80;5.50;101274.00;;;;31128083;28;20050;-72
2021/10/22 04:29:02;;;;;;;0.28;0.28;;;6.70;87.80;5.50;101275.00;;;;31136309;28;20048;-71
2021/10/22 04:44:04;;;;;;;0.20;0.20;;;6.60;92.00;5.60;101301.00;;;;31130650;28;20061;-71
2021/10/22 04:59:23;;;;;;;0.25;0.25;;;6.90;87.40;5.90;101303.00;;;;31128730;28;20226;-72
2021/10/22 05:14:38;;;;;;;0.20;0.20;;;7.10;87.10;6.00;101328.00;;;;31130583;28;20068;-72
2021/10/22 05:29:39;;;;;;;0.20;0.20;;;7.10;87.20;5.90;101305.00;;;;31124796;28;20050;-72
2021/10/22 05:44:40;;;;;;;0.30;0.30;;;7.10;92.40;5.90;101305.00;;;;31124762;28;20050;-73
2021/10/22 05:59:42;;;;;;;0.20;0.20;;;7.00;88.40;5.80;101268.00;;;;31121056;28;20129;-72
2021/10/22 06:14:46;;;;;;;0.20;0.20;;;7.00;89.00;5.80;101281.00;;;;31142020;28;20144;-72
2021/10/22 06:29:48;;;;;;;0.20;0.20;;;7.00;89.60;5.90;101265.00;;;;31136906;28;20045;-72
2021/10/22 06:44:49;;;;;;;0.65;0.65;;;7.80;89.50;6.10;101264.00;;;;31124992;28;20038;-72
2021/10/22 07:16:32;;;;;;;0.20;0.20;;;7.60;88.60;6.60;101293.00;;;;31117002;28;20295;-71
2021/10/22 07:31:40;;;;;;;0.20;0.20;;;8.00;92.50;6.90;101307.00;;;;31142710;28;20095;-72
2021/10/22 07:46:43;;;;;;;0.20;0.20;;;7.90;88.50;7.20;101320.00;;;;31140389;28;20049;-72
2021/10/22 08:01:45;;;;;;;0.20;0.20;;;8.40;88.70;7.40;101311.00;;;;31129012;28;20042;-71
2021/10/22 08:16:47;;;;;;;0.52;0.52;;;8.90;92.40;7.80;101326.00;;;;31131434;28;20602;-72
2021/10/22 08:31:49;;;;;;;0.20;0.20;;;9.00;87.90;8.20;101341.00;;;;31126788;28;20052;-73
2021/10/22 08:46:52;;;;;;;0.17;0.17;;;9.50;91.50;8.50;101342.00;;;;31131423;28;20053;-71
2021/10/22 09:02:17;;;;;;;0.20;0.20;;;9.60;85.60;8.70;101360.00;;;;31121699;28;20033;-73
2021/10/22 09:17:18;;;;;;;0.20;0.20;;;10.10;84.40;9.30;101352.00;;;;31115526;28;20069;-72
2021/10/22 09:32:26;;;;;;;0.57;0.57;;;10.40;83.70;9.60;101372.00;;;;31110074;28;20038;-71
2021/10/22 09:47:27;;;;;;;0.20;0.20;;;10.60;83.50;10.10;101365.00;;;;31121651;28;20407;-71
2021/10/22 10:02:41;;;;;;;0.10;0.10;;;11.10;82.10;10.10;101386.00;;;;31119609;28;20396;-73
2021/10/22 10:17:50;;;;;;;0.20;0.20;;;11.00;84.00;10.00;101406.00;;;;31132497;28;20237;-72
2021/10/22 10:32:53;;;;;;;0.20;0.20;;;10.90;84.00;10.10;101402.00;;;;31132575;28;20623;-73
2021/10/22 10:48:02;;;;;;;0.20;0.20;;;11.20;83.80;10.30;101435.00;;;;31115379;28;20038;-72
2021/10/22 11:03:15;;;;;;;0.13;0.13;;;11.20;83.70;10.50;101437.00;;;;31134027;28;20069;-71
2021/10/22 11:18:21;;;;;;;0.10;0.10;;;11.90;82.60;11.30;101447.00;;;;31130789;28;20056;-71
2021/10/22 11:33:27;;;;;;;0.20;0.20;;;12.00;84.20;11.50;101453.00;;;;31142358;28;20523;-71
2021/10/22 11:48:34;;;;;;;0.10;0.10;;;12.20;82.60;11.30;101457.00;;;;31108040;28;20073;-72
2021/10/22 12:03:40;;;;;;;0.10;0.10;;;12.10;83.10;11.10;101445.00;;;;31117985;28;20041;-71
2021/10/22 12:19:07;;;;;;;0.15;0.15;;;11.90;85.30;11.00;101475.00;;;;31132885;28;20042;-72
2021/10/22 12:34:30;;;;;;;0.55;0.55;;;11.70;87.00;10.80;101488.00;;;;31117237;28;20920;-71
2021/10/22 12:49:31;;;;;;;0.10;0.10;;;12.00;90.10;11.10;101502.00;;;;31111749;28;20048;-71
2021/10/22 13:04:32;;;;;;;0.10;0.10;;;14.60;91.40;11.40;101519.00;;;;31124157;28;20065;-71
2021/10/22 13:34:54;;;;;;;0.10;0.10;;;12.30;85.00;11.50;101521.00;;;;31111592;28;20789;-72
2021/10/22 13:49:55;;;;;;;0.20;0.20;;;12.20;85.00;11.40;101535.00;;;;31114494;28;20053;-72
2021/10/22 14:04:58;;;;;;;0.20;0.20;;;12.30;85.30;11.30;101552.00;;;;31105826;28;20042;-72
2021/10/22 14:35:22;;;;;;;0.03;0.03;;;12.10;87.00;11.10;101600.00;;;;31119385;28;20072;-73
2021/10/22 14:50:26;;;;;;;0.15;0.15;;;11.20;92.10;10.40;101647.00;;;;31135534;28;20064;-74
2021/10/22 15:05:39;;;;;;;0.15;0.15;;;11.20;89.20;10.10;101667.00;;;;31132215;28;20084;-73
2021/10/22 15:20:41;;;;;;;0.10;0.10;;;11.00;90.00;10.00;101700.00;;;;31157619;28;20412;-71
2021/10/22 15:35:44;;;;;;;0.10;0.10;;;11.80;91.00;10.00;101720.00;;;;31121429;28;20456;-72
2021/10/22 15:50:54;;;;;;;0.20;0.20;;;11.00;90.70;10.00;101737.00;;;;31136007;28;20125;-72
2021/10/22 16:06:02;;;;;;;0.43;0.43;;;10.80;90.50;9.90;101756.00;;;;31130463;28;20582;-72
2021/10/22 16:21:06;;;;;;;0.20;0.20;;;11.30;99.80;9.80;101784.00;;;;31128486;28;20071;-72
2021/10/22 16:36:07;;;;;;;0.20;0.20;;;10.80;91.10;9.70;101815.00;;;;31129112;28;20140;-72
2021/10/22 16:51:08;;;;;;;0.20;0.20;;;10.70;91.10;9.70;101857.00;;;;31126365;28;20137;-72
2021/10/22 17:06:09;;;;;;;0.13;0.13;;;10.60;91.00;9.60;101854.00;;;;31117586;28;20045;-73
2021/10/22 17:21:12;;;;;;;0.15;0.15;;;10.70;90.90;9.60;101877.00;;;;31120883;28;20049;-73
2021/10/22 17:36:13;;;;;;;0.20;0.20;;;10.60;91.30;9.60;101909.00;;;;31125671;28;20645;-72
2021/10/22 17:51:18;;;;;;;0.33;0.33;;;12.90;91.40;9.50;101936.00;;;;31110050;28;20045;-71
2021/10/22 18:06:19;;;;;;;0.10;0.10;;;10.50;90.60;9.50;101968.00;;;;31130838;28;20280;-71
2021/10/22 18:21:21;;;;;;;0.10;0.10;;;10.50;91.10;9.50;101984.00;;;;31133282;28;20071;-71
2021/10/22 18:36:22;;;;;;;0.20;0.20;;;10.40;91.80;9.40;102003.00;;;;31114652;28;20045;-72
2021/10/22 18:51:25;;;;;;;0.20;0.20;;;10.30;91.30;9.20;102005.00;;;;31120778;28;20065;-71
2021/10/22 19:06:33;;;;;;;0.20;0.20;;;10.10;91.30;9.00;102029.00;;;;31122523;28;21314;-71
2021/10/22 19:21:35;;;;;;;0.10;0.10;;;9.90;91.30;8.80;102052.00;;;;31120011;28;20510;-72
2021/10/22 19:36:37;;;;;;;0.20;0.20;;;9.80;91.30;8.50;102054.00;;;;31123271;28;20124;-72
2021/10/22 19:51:46;;;;;;;0.32;0.32;;;9.40;91.80;8.30;102073.00;;;;31121441;28;20587;-72
2021/10/22 20:06:47;;;;;;;0.20;0.20;;;9.30;91.80;8.00;102084.00;;;;31117787;28;20492;-71
2021/10/22 20:21:50;;;;;;;0.10;0.10;;;9.40;93.50;7.80;102122.00;;;;31120703;28;20079;-72
2021/10/22 20:36:53;;;;;;;0.10;0.10;;;;;7.80;102136.00;;;;31116490;28;20040;-72
2021/10/22 21:07:16;;;;;;;0.20;0.20;;;10.50;92.90;7.70;102170.00;;;;31106934;28;20578;-72
2021/10/22 21:22:19;;;;;;;0.20;0.20;;;8.70;92.80;7.50;102196.00;;;;31111713;28;20475;-72
2021/10/22 21:37:20;;;;;;;0.20;0.20;;;8.70;92.60;7.40;102216.00;;;;31112286;28;20053;-72
2021/10/22 21:52:22;;;;;;;0.20;0.20;;;;;7.50;102221.00;;;;31103571;28;20041;-72
2021/10/22 22:07:24;;;;;;;0.20;0.20;;;8.50;93.10;7.30;102238.00;;;;31109512;28;20052;-72
2021/10/22 22:22:26;;;;;;;0.20;0.20;;;8.30;93.20;7.00;102237.00;;;;31108870;28;20436;-72
2021/10/22 22:37:27;;;;;;;0.90;0.90;;;8.10;93.10;6.70;102255.00;;;;31102772;28;20159;-72
2021/10/22 22:52:30;;;;;;;0.20;0.20;;;7.90;93.30;6.50;102258.00;;;;31126664;28;20049;-73
2021/10/22 23:07:32;;;;;;;0.20;0.20;;;7.80;93.80;6.50;102275.00;;;;31123893;28;20052;-72
2021/10/22 23:22:38;;;;;;;0.20;0.20;;;7.70;93.50;6.30;102273.00;;;;31128477;28;20045;-72
2021/10/22 23:37:39;;;;;;;0.20;0.20;;;7.40;93.20;6.10;102306.00;;;;31105087;28;20046;-72
2021/10/22 23:52:40;;;;;;;0.20;0.20;;;7.40;93.60;6.00;102319.00;;;;31137647;28;20053;-72
